Lefor, ND (58641)

4:07 AM MDT on July 28, 2015 (GMT -0600)
Dickinson Municipal | | Change Station
CLOSE
Current Station
Airport
Location: Dickinson,
Elevation: 2592 ft
Nearby Weather Stations
Active Advisory: High Wind Warning Active Notice: Public Information Statement

Elev 2592 ft 46.80 °N, 102.80 °W | Updated 11 minutes ago

Overcast
Overcast
58 °F
Feels Like 58 °F
N
25
Wind Variable Wind from WSW
Gusts 33 mph

Today
High -- | Low -- °F
--% Chance of Precip.
Yesterday
High -- | Low -- °F
Precip. -- in
5:26 AM 8:28 PM
Waxing Gibbous, 88% visible
Pressure 29.65 in
Visibility 10.0 miles
Clouds Few 1600 ft
Overcast 2300 ft
Dew Point 53 °F
Humidity 84%
Rainfall 0.00 in
Snow Depth Not available.
UV 0 out of 12
Pollen 7.60 out of 12
Air Quality Not available.
Flu Activity Not available.
METAR KDIK 280956Z AUTO 25022G29KT 10SM FEW016 OVC023 14/12 A2970 RMK AO2 PK WND 26030/0931 SLP040 T01440117

More Conditions Fewer Conditions

Pressure 29.65 in
Visibility 10.0 miles
Clouds Few 1600 ft
Overcast 2300 ft
Dew Point 53 °F
Humidity 84%
Rainfall 0.00 in
Snow Depth Not available.
UV 0 out of 12
Pollen 7.60 out of 12
Air Quality Not available.
Flu Activity Not available.
METAR KDIK 280956Z AUTO 25022G29KT 10SM FEW016 OVC023 14/12 A2970 RMK AO2 PK WND 26030/0931 SLP040 T01440117

More Conditions Fewer Conditions

10-Day Weather Forecast

×

Almanac

Astronomy

Jul. 28, 2015 Rise Set
Actual Time
Civil Twilight
Nautical Twilight
Astronomical Twilight
Moon
Length of Visible Light
Length of Day
Tomorrow will be .
, % of the Moon is Illuminated

Today's Extremes

State Highs State Lows

Community

WunderPhotos

Upload Photos

1,841,800 photos uploaded!

WunderBlogs® & News

Nearby

Air Quality

  Air Quality AQ Index Pollutant
Not available.

Snow Depth

Station Depth Elevation

Earthquake Activity

City Distance Mag. Time & Date
Minimum magnitude displayed is 2.5.

Coastal Water Temperatures

Place Temperature

Stations

Nearby Weather Stations

Station Location Temp. Windchill Dew Point Humidity Wind Precip. Elev Updated Type
                   
High Wind Warning
Statement as of 2:33 AM CDT on July 28, 2015

... High Wind Warning in effect from 10 am CDT /9 am MDT/ this
morning to 9 PM CDT /8 PM MDT/ this evening...

The National Weather Service in Bismarck has issued a High Wind
Warning... which is in effect from 10 am CDT /9 am MDT/ this
morning to 9 PM CDT /8 PM MDT/ this evening. The high wind watch
is no longer in effect.

* Timing... Tuesday morning into Tuesday evening.

* Winds... west winds with gusts to around 60 mph.

* Impacts... travel may become hazardous.

Precautionary/preparedness actions...

A High Wind Warning means a hazardous high wind event is expected
or occurring. Sustained wind speeds of at least 40 mph or gusts
of 58 mph or more can lead to property damage.